SWA460 KPNS-KHOU
Flight info
| Callsign | SWA460 |
|---|---|
| Flight time | 1h 18m |
| Altitude | 34000 |
| Route | ROMMY HRV KCEEE PUCKS4 |
| Aircraft | B737/M-SADE2E3GIJ4RWZ/LB1D1 |
Departure
| Time | 2026-04-27 23:39 |
|---|---|
| Airport | Pensacola International Airport (KPNS) |
Arrival
| Time | 2026-04-28 00:58 |
|---|---|
| Airport | William P. Hobby Airport (KHOU) |
| Time | Latitude | Longitude | Altitude | Speed | Heading |
|---|---|---|---|---|---|
| 2026-04-27 23:04 | 30.47492 | -87.19274 | 125 ft | 0 kts | 27° |
| 2026-04-27 23:31 | 30.47476 | -87.19285 | 123 ft | 4 kts | 27° |
| 2026-04-27 23:31 | 30.47451 | -87.19295 | 125 ft | 4 kts | 356° |
| 2026-04-27 23:32 | 30.47429 | -87.19290 | 129 ft | 4 kts | 339° |
| 2026-04-27 23:32 | 30.47408 | -87.19275 | 125 ft | 4 kts | 295° |
| 2026-04-27 23:32 | 30.47403 | -87.19248 | 123 ft | 4 kts | 274° |
| 2026-04-27 23:32 | 30.47403 | -87.19239 | 123 ft | 0 kts | 274° |
| 2026-04-27 23:35 | 30.47403 | -87.19240 | 123 ft | 2 kts | 274° |
| 2026-04-27 23:35 | 30.47365 | -87.19295 | 126 ft | 8 kts | 174° |
| 2026-04-27 23:35 | 30.47338 | -87.19230 | 128 ft | 14 kts | 83° |
| 2026-04-27 23:36 | 30.47359 | -87.19115 | 128 ft | 14 kts | 78° |
| 2026-04-27 23:36 | 30.47387 | -87.19011 | 126 ft | 13 kts | 46° |
| 2026-04-27 23:36 | 30.47462 | -87.19004 | 125 ft | 10 kts | 344° |
| 2026-04-27 23:36 | 30.47527 | -87.19021 | 125 ft | 9 kts | 347° |
| 2026-04-27 23:37 | 30.47603 | -87.19041 | 126 ft | 17 kts | 347° |
| 2026-04-27 23:37 | 30.47751 | -87.19081 | 126 ft | 25 kts | 347° |
| 2026-04-27 23:37 | 30.47919 | -87.19125 | 125 ft | 24 kts | 347° |
| 2026-04-27 23:37 | 30.48073 | -87.19167 | 126 ft | 22 kts | 347° |
| 2026-04-27 23:38 | 30.48205 | -87.19202 | 129 ft | 15 kts | 350° |
| 2026-04-27 23:38 | 30.48264 | -87.19146 | 132 ft | 11 kts | 78° |
| 2026-04-27 23:38 | 30.48270 | -87.19078 | 130 ft | 7 kts | 106° |
| 2026-04-27 23:38 | 30.48236 | -87.19049 | 131 ft | 7 kts | 165° |
| 2026-04-27 23:39 | 30.48191 | -87.19037 | 126 ft | 27 kts | 167° |
| 2026-04-27 23:39 | 30.47731 | -87.18915 | 126 ft | 106 kts | 167° |
| 2026-04-27 23:39 | 30.46828 | -87.18657 | 300 ft | 151 kts | 166° |
| 2026-04-27 23:39 | 30.45747 | -87.18368 | 896 ft | 166 kts | 173° |
| 2026-04-27 23:40 | 30.44655 | -87.18638 | 1749 ft | 172 kts | 210° |
| 2026-04-27 23:40 | 30.43766 | -87.19832 | 1867 ft | 223 kts | 241° |
| 2026-04-27 23:40 | 30.43357 | -87.21741 | 2148 ft | 262 kts | 263° |
| 2026-04-27 23:40 | 30.43250 | -87.23892 | 2957 ft | 271 kts | 264° |
| 2026-04-27 23:41 | 30.43142 | -87.26103 | 3807 ft | 278 kts | 264° |
| 2026-04-27 23:41 | 30.42999 | -87.28326 | 4869 ft | 274 kts | 265° |
| 2026-04-27 23:41 | 30.42868 | -87.30506 | 5995 ft | 270 kts | 266° |
| 2026-04-27 23:41 | 30.42735 | -87.32671 | 7066 ft | 267 kts | 266° |
| 2026-04-27 23:42 | 30.42597 | -87.34800 | 8157 ft | 266 kts | 266° |
| 2026-04-27 23:42 | 30.42459 | -87.36977 | 9005 ft | 277 kts | 266° |
| 2026-04-27 23:42 | 30.42317 | -87.39231 | 9915 ft | 282 kts | 266° |
| 2026-04-27 23:42 | 30.42172 | -87.41525 | 10725 ft | 292 kts | 266° |
| 2026-04-27 23:43 | 30.42019 | -87.43924 | 11414 ft | 306 kts | 266° |
| 2026-04-27 23:43 | 30.41857 | -87.46427 | 12114 ft | 319 kts | 267° |
| 2026-04-27 23:43 | 30.41686 | -87.49081 | 12421 ft | 344 kts | 267° |
| 2026-04-27 23:43 | 30.41506 | -87.51913 | 12921 ft | 359 kts | 267° |
| 2026-04-27 23:44 | 30.41316 | -87.54863 | 13429 ft | 374 kts | 267° |
| 2026-04-27 23:44 | 30.41118 | -87.57879 | 14256 ft | 376 kts | 267° |
| 2026-04-27 23:44 | 30.40917 | -87.60908 | 15063 ft | 379 kts | 267° |
| 2026-04-27 23:44 | 30.40712 | -87.63957 | 15890 ft | 381 kts | 268° |
| 2026-04-27 23:45 | 30.40505 | -87.67025 | 16747 ft | 382 kts | 268° |
| 2026-04-27 23:45 | 30.40297 | -87.70097 | 17608 ft | 383 kts | 269° |
| 2026-04-27 23:45 | 30.40087 | -87.73178 | 18450 ft | 384 kts | 269° |
| 2026-04-27 23:45 | 30.39875 | -87.76272 | 19144 ft | 386 kts | 269° |
| 2026-04-27 23:46 | 30.39662 | -87.79388 | 19763 ft | 391 kts | 269° |
| 2026-04-27 23:46 | 30.39445 | -87.82541 | 20344 ft | 396 kts | 269° |
| 2026-04-27 23:46 | 30.39228 | -87.85694 | 20930 ft | 400 kts | 269° |
| 2026-04-27 23:46 | 30.39001 | -87.88962 | 21522 ft | 404 kts | 268° |
| 2026-04-27 23:47 | 30.38774 | -87.92222 | 22096 ft | 408 kts | 268° |
| 2026-04-27 23:47 | 30.38544 | -87.95516 | 22663 ft | 412 kts | 268° |
| 2026-04-27 23:47 | 30.38314 | -87.98796 | 23192 ft | 416 kts | 268° |
| 2026-04-27 23:47 | 30.38078 | -88.02144 | 23771 ft | 418 kts | 268° |
| 2026-04-27 23:48 | 30.37840 | -88.05507 | 24245 ft | 420 kts | 268° |
| 2026-04-27 23:48 | 30.37600 | -88.08892 | 24662 ft | 424 kts | 268° |
| 2026-04-27 23:48 | 30.37358 | -88.12279 | 25148 ft | 426 kts | 268° |
| 2026-04-27 23:48 | 30.37114 | -88.15699 | 25635 ft | 428 kts | 268° |
| 2026-04-27 23:49 | 30.36867 | -88.19147 | 26039 ft | 431 kts | 268° |
| 2026-04-27 23:49 | 30.36617 | -88.22624 | 26428 ft | 435 kts | 268° |
| 2026-04-27 23:49 | 30.36364 | -88.26128 | 26813 ft | 438 kts | 268° |
| 2026-04-27 23:49 | 30.36108 | -88.29656 | 27198 ft | 441 kts | 268° |
| 2026-04-27 23:50 | 30.35850 | -88.33204 | 27567 ft | 444 kts | 268° |
| 2026-04-27 23:50 | 30.35589 | -88.36778 | 27931 ft | 447 kts | 268° |
| 2026-04-27 23:50 | 30.35325 | -88.40374 | 28282 ft | 450 kts | 268° |
| 2026-04-27 23:50 | 30.35059 | -88.43994 | 28623 ft | 453 kts | 268° |
| 2026-04-27 23:51 | 30.34790 | -88.47636 | 28976 ft | 455 kts | 268° |
| 2026-04-27 23:51 | 30.34521 | -88.51230 | 29971 ft | 442 kts | 268° |
| 2026-04-27 23:51 | 30.34256 | -88.54755 | 30630 ft | 438 kts | 268° |
| 2026-04-27 23:51 | 30.33994 | -88.58271 | 31017 ft | 440 kts | 268° |
| 2026-04-27 23:52 | 30.33731 | -88.61806 | 31378 ft | 441 kts | 268° |
| 2026-04-27 23:52 | 30.33466 | -88.65344 | 31856 ft | 440 kts | 268° |
| 2026-04-27 23:52 | 30.33200 | -88.68857 | 32415 ft | 437 kts | 269° |
| 2026-04-27 23:52 | 30.32936 | -88.72345 | 32936 ft | 434 kts | 269° |
| 2026-04-27 23:53 | 30.32672 | -88.75816 | 33423 ft | 432 kts | 269° |
| 2026-04-27 23:53 | 30.32301 | -88.79273 | 33854 ft | 435 kts | 263° |
| 2026-04-27 23:53 | 30.31546 | -88.82681 | 34049 ft | 442 kts | 256° |
| 2026-04-27 23:53 | 30.30359 | -88.85981 | 34074 ft | 444 kts | 251° |
| 2026-04-27 23:54 | 30.27775 | -88.92463 | 34064 ft | 442 kts | 251° |
| 2026-04-27 23:54 | 30.25221 | -88.98868 | 34063 ft | 440 kts | 251° |
| 2026-04-27 23:55 | 30.22667 | -89.05350 | 34079 ft | 439 kts | 251° |
| 2026-04-27 23:55 | 30.20146 | -89.11779 | 34080 ft | 439 kts | 251° |
| 2026-04-27 23:56 | 30.17640 | -89.18165 | 34080 ft | 439 kts | 251° |
| 2026-04-27 23:56 | 30.15111 | -89.24597 | 34076 ft | 440 kts | 251° |
| 2026-04-27 23:57 | 30.12579 | -89.31021 | 34071 ft | 439 kts | 251° |
| 2026-04-27 23:57 | 30.10047 | -89.37433 | 34062 ft | 438 kts | 251° |
| 2026-04-27 23:58 | 30.07515 | -89.43835 | 34065 ft | 438 kts | 251° |
| 2026-04-27 23:58 | 30.04986 | -89.50220 | 34066 ft | 437 kts | 251° |
| 2026-04-27 23:59 | 30.02457 | -89.56594 | 34065 ft | 437 kts | 251° |
| 2026-04-27 23:59 | 29.99926 | -89.62963 | 34065 ft | 436 kts | 251° |
| 2026-04-28 00:00 | 29.97393 | -89.69324 | 34066 ft | 436 kts | 251° |
| 2026-04-28 00:00 | 29.94858 | -89.75678 | 34069 ft | 436 kts | 251° |
| 2026-04-28 00:01 | 29.92322 | -89.82027 | 34066 ft | 436 kts | 251° |
| 2026-04-28 00:01 | 29.89780 | -89.88381 | 34065 ft | 436 kts | 251° |
| 2026-04-28 00:02 | 29.87252 | -89.94688 | 34066 ft | 437 kts | 251° |
| 2026-04-28 00:02 | 29.84791 | -90.01063 | 34052 ft | 432 kts | 257° |
| 2026-04-28 00:03 | 29.83178 | -90.07684 | 34053 ft | 428 kts | 261° |
| 2026-04-28 00:03 | 29.81653 | -90.14310 | 34051 ft | 428 kts | 261° |
| 2026-04-28 00:04 | 29.79328 | -90.24240 | 34060 ft | 429 kts | 260° |
| 2026-04-28 00:05 | 29.77753 | -90.30869 | 34054 ft | 429 kts | 260° |
| 2026-04-28 00:05 | 29.76172 | -90.37494 | 34055 ft | 430 kts | 260° |
| 2026-04-28 00:06 | 29.74584 | -90.44132 | 34055 ft | 430 kts | 260° |
| 2026-04-28 00:06 | 29.72991 | -90.50776 | 34052 ft | 431 kts | 260° |
| 2026-04-28 00:07 | 29.71393 | -90.57423 | 34049 ft | 431 kts | 260° |
| 2026-04-28 00:07 | 29.69802 | -90.64030 | 34048 ft | 432 kts | 259° |
| 2026-04-28 00:08 | 29.68184 | -90.70730 | 34044 ft | 432 kts | 259° |
| 2026-04-28 00:08 | 29.66583 | -90.77344 | 34041 ft | 432 kts | 259° |
| 2026-04-28 00:09 | 29.64970 | -90.83992 | 34044 ft | 431 kts | 259° |
| 2026-04-28 00:09 | 29.63356 | -90.90627 | 34047 ft | 431 kts | 259° |
| 2026-04-28 00:10 | 29.61741 | -90.97250 | 34048 ft | 430 kts | 259° |
| 2026-04-28 00:10 | 29.60126 | -91.03861 | 34047 ft | 429 kts | 259° |
| 2026-04-28 00:11 | 29.58509 | -91.10462 | 34047 ft | 429 kts | 259° |
| 2026-04-28 00:11 | 29.56891 | -91.17055 | 34045 ft | 428 kts | 259° |
| 2026-04-28 00:12 | 29.55274 | -91.23627 | 34042 ft | 427 kts | 259° |
| 2026-04-28 00:12 | 29.53657 | -91.30183 | 34044 ft | 426 kts | 259° |
| 2026-04-28 00:13 | 29.52041 | -91.36718 | 34031 ft | 425 kts | 259° |
| 2026-04-28 00:13 | 29.50424 | -91.43245 | 34040 ft | 425 kts | 259° |
| 2026-04-28 00:14 | 29.48807 | -91.49760 | 34039 ft | 425 kts | 259° |
| 2026-04-28 00:14 | 29.47185 | -91.56276 | 34031 ft | 424 kts | 258° |
| 2026-04-28 00:15 | 29.45561 | -91.62789 | 34033 ft | 424 kts | 258° |
| 2026-04-28 00:15 | 29.43933 | -91.69299 | 34027 ft | 424 kts | 258° |
| 2026-04-28 00:16 | 29.42316 | -91.75753 | 34030 ft | 425 kts | 258° |
| 2026-04-28 00:16 | 29.40679 | -91.82269 | 34026 ft | 425 kts | 258° |
| 2026-04-28 00:17 | 29.39043 | -91.88770 | 34018 ft | 425 kts | 258° |
| 2026-04-28 00:17 | 29.37401 | -91.95279 | 34025 ft | 424 kts | 258° |
| 2026-04-28 00:18 | 29.35758 | -92.01774 | 34014 ft | 424 kts | 258° |
| 2026-04-28 00:18 | 29.34114 | -92.08263 | 34012 ft | 423 kts | 258° |
| 2026-04-28 00:19 | 29.32469 | -92.14740 | 34007 ft | 423 kts | 258° |
| 2026-04-28 00:19 | 29.30823 | -92.21206 | 34008 ft | 423 kts | 258° |
| 2026-04-28 00:20 | 29.29176 | -92.27665 | 34007 ft | 422 kts | 258° |
| 2026-04-28 00:20 | 29.27527 | -92.34115 | 34010 ft | 421 kts | 258° |
| 2026-04-28 00:21 | 29.25880 | -92.40547 | 34000 ft | 421 kts | 258° |
| 2026-04-28 00:21 | 29.24426 | -92.47006 | 33984 ft | 415 kts | 268° |
| 2026-04-28 00:22 | 29.24705 | -92.53538 | 33992 ft | 410 kts | 277° |
| 2026-04-28 00:22 | 29.25280 | -92.60037 | 33993 ft | 410 kts | 277° |
| 2026-04-28 00:23 | 29.25820 | -92.66538 | 34001 ft | 410 kts | 277° |
| 2026-04-28 00:23 | 29.26324 | -92.73050 | 33994 ft | 410 kts | 277° |
| 2026-04-28 00:24 | 29.26729 | -92.78460 | 33987 ft | 410 kts | 276° |
| 2026-04-28 00:24 | 29.27214 | -92.84967 | 33989 ft | 410 kts | 276° |
| 2026-04-28 00:25 | 29.27701 | -92.91470 | 33985 ft | 410 kts | 277° |
| 2026-04-28 00:25 | 29.28191 | -92.97968 | 33986 ft | 410 kts | 276° |
| 2026-04-28 00:26 | 29.28677 | -93.04469 | 33986 ft | 410 kts | 277° |
| 2026-04-28 00:26 | 29.29183 | -93.10969 | 33986 ft | 410 kts | 277° |
| 2026-04-28 00:27 | 29.29690 | -93.17470 | 33986 ft | 410 kts | 276° |
| 2026-04-28 00:27 | 29.30191 | -93.23967 | 33979 ft | 410 kts | 276° |
| 2026-04-28 00:28 | 29.30685 | -93.30426 | 33975 ft | 410 kts | 276° |
| 2026-04-28 00:28 | 29.31178 | -93.36931 | 33973 ft | 410 kts | 276° |
| 2026-04-28 00:29 | 29.31669 | -93.43432 | 33980 ft | 410 kts | 276° |
| 2026-04-28 00:29 | 29.32156 | -93.49941 | 33984 ft | 410 kts | 276° |
| 2026-04-28 00:30 | 29.32640 | -93.56447 | 33973 ft | 410 kts | 276° |
| 2026-04-28 00:30 | 29.33121 | -93.62954 | 33980 ft | 410 kts | 276° |
| 2026-04-28 00:31 | 29.33599 | -93.69463 | 33973 ft | 410 kts | 276° |
| 2026-04-28 00:31 | 29.34074 | -93.75976 | 33974 ft | 410 kts | 276° |
| 2026-04-28 00:32 | 29.34548 | -93.82502 | 33441 ft | 417 kts | 276° |
| 2026-04-28 00:32 | 29.34787 | -93.85809 | 32670 ft | 414 kts | 276° |
| 2026-04-28 00:32 | 29.35021 | -93.89096 | 31772 ft | 413 kts | 276° |
| 2026-04-28 00:32 | 29.35223 | -93.92385 | 30770 ft | 414 kts | 275° |
| 2026-04-28 00:33 | 29.35403 | -93.95689 | 29701 ft | 416 kts | 275° |
| 2026-04-28 00:33 | 29.35575 | -93.98999 | 28522 ft | 417 kts | 275° |
| 2026-04-28 00:33 | 29.35748 | -94.02314 | 27499 ft | 416 kts | 275° |
| 2026-04-28 00:33 | 29.35923 | -94.05615 | 26612 ft | 414 kts | 275° |
| 2026-04-28 00:34 | 29.36099 | -94.08893 | 25791 ft | 411 kts | 275° |
| 2026-04-28 00:34 | 29.36274 | -94.12156 | 24946 ft | 410 kts | 274° |
| 2026-04-28 00:34 | 29.36450 | -94.15415 | 24122 ft | 410 kts | 274° |
| 2026-04-28 00:34 | 29.36625 | -94.18675 | 23237 ft | 408 kts | 274° |
| 2026-04-28 00:35 | 29.36797 | -94.21901 | 22317 ft | 403 kts | 274° |
| 2026-04-28 00:35 | 29.36969 | -94.25084 | 21476 ft | 397 kts | 274° |
| 2026-04-28 00:35 | 29.37165 | -94.28218 | 20658 ft | 392 kts | 274° |
| 2026-04-28 00:35 | 29.37369 | -94.31292 | 20310 ft | 376 kts | 274° |
| 2026-04-28 00:36 | 29.37560 | -94.34211 | 20123 ft | 359 kts | 274° |
| 2026-04-28 00:36 | 29.37739 | -94.37000 | 19944 ft | 343 kts | 274° |
| 2026-04-28 00:36 | 29.37965 | -94.39714 | 19396 ft | 342 kts | 276° |
| 2026-04-28 00:36 | 29.38252 | -94.42417 | 18890 ft | 342 kts | 277° |
| 2026-04-28 00:37 | 29.38554 | -94.45128 | 18345 ft | 343 kts | 277° |
| 2026-04-28 00:37 | 29.38852 | -94.47839 | 17736 ft | 341 kts | 277° |
| 2026-04-28 00:37 | 29.39141 | -94.50521 | 17173 ft | 337 kts | 276° |
| 2026-04-28 00:37 | 29.39421 | -94.53166 | 16682 ft | 332 kts | 276° |
| 2026-04-28 00:38 | 29.39695 | -94.55790 | 16156 ft | 332 kts | 276° |
| 2026-04-28 00:38 | 29.39968 | -94.58427 | 15643 ft | 334 kts | 275° |
| 2026-04-28 00:38 | 29.40243 | -94.61087 | 15116 ft | 337 kts | 275° |
| 2026-04-28 00:38 | 29.40518 | -94.63758 | 14573 ft | 337 kts | 275° |
| 2026-04-28 00:39 | 29.40844 | -94.66417 | 14043 ft | 338 kts | 281° |
| 2026-04-28 00:39 | 29.41636 | -94.68914 | 13570 ft | 337 kts | 290° |
| 2026-04-28 00:39 | 29.42572 | -94.71376 | 13078 ft | 336 kts | 291° |
| 2026-04-28 00:39 | 29.43510 | -94.73819 | 12615 ft | 333 kts | 291° |
| 2026-04-28 00:40 | 29.44431 | -94.76245 | 12164 ft | 331 kts | 290° |
| 2026-04-28 00:40 | 29.45339 | -94.78670 | 11728 ft | 330 kts | 290° |
| 2026-04-28 00:40 | 29.46235 | -94.81089 | 11288 ft | 329 kts | 290° |
| 2026-04-28 00:40 | 29.47121 | -94.83491 | 10847 ft | 324 kts | 290° |
| 2026-04-28 00:41 | 29.47993 | -94.85860 | 10410 ft | 321 kts | 290° |
| 2026-04-28 00:41 | 29.48853 | -94.88203 | 10028 ft | 316 kts | 290° |
| 2026-04-28 00:41 | 29.49679 | -94.90474 | 9985 ft | 299 kts | 289° |
| 2026-04-28 00:41 | 29.50459 | -94.92626 | 9734 ft | 290 kts | 289° |
| 2026-04-28 00:42 | 29.51237 | -94.94785 | 9298 ft | 291 kts | 289° |
| 2026-04-28 00:42 | 29.52006 | -94.96917 | 8998 ft | 286 kts | 289° |
| 2026-04-28 00:42 | 29.52759 | -94.99005 | 8744 ft | 280 kts | 289° |
| 2026-04-28 00:42 | 29.53500 | -95.01057 | 8486 ft | 277 kts | 288° |
| 2026-04-28 00:43 | 29.54234 | -95.03098 | 8251 ft | 276 kts | 288° |
| 2026-04-28 00:43 | 29.54968 | -95.05135 | 8021 ft | 275 kts | 288° |
| 2026-04-28 00:43 | 29.55698 | -95.07162 | 7790 ft | 274 kts | 288° |
| 2026-04-28 00:43 | 29.56427 | -95.09188 | 7564 ft | 274 kts | 288° |
| 2026-04-28 00:44 | 29.57154 | -95.11207 | 7340 ft | 274 kts | 288° |
| 2026-04-28 00:44 | 29.57882 | -95.13231 | 7115 ft | 274 kts | 288° |
| 2026-04-28 00:44 | 29.58497 | -95.15287 | 6948 ft | 269 kts | 279° |
| 2026-04-28 00:44 | 29.58869 | -95.17378 | 6815 ft | 266 kts | 276° |
| 2026-04-28 00:45 | 29.59198 | -95.19461 | 6681 ft | 264 kts | 275° |
| 2026-04-28 00:45 | 29.59533 | -95.21530 | 6551 ft | 263 kts | 276° |
| 2026-04-28 00:45 | 29.59882 | -95.23594 | 6421 ft | 262 kts | 276° |
| 2026-04-28 00:45 | 29.60233 | -95.25610 | 6281 ft | 253 kts | 276° |
| 2026-04-28 00:46 | 29.60575 | -95.27550 | 6143 ft | 244 kts | 276° |
| 2026-04-28 00:46 | 29.60902 | -95.29398 | 6022 ft | 235 kts | 276° |
| 2026-04-28 00:46 | 29.61240 | -95.31223 | 5869 ft | 233 kts | 277° |
| 2026-04-28 00:46 | 29.61616 | -95.33036 | 5730 ft | 234 kts | 277° |
| 2026-04-28 00:47 | 29.61996 | -95.34857 | 5590 ft | 234 kts | 278° |
| 2026-04-28 00:47 | 29.62374 | -95.36670 | 5426 ft | 233 kts | 277° |
| 2026-04-28 00:47 | 29.62803 | -95.38461 | 5249 ft | 235 kts | 289° |
| 2026-04-28 00:47 | 29.63818 | -95.39961 | 5105 ft | 239 kts | 310° |
| 2026-04-28 00:48 | 29.64980 | -95.41324 | 4927 ft | 238 kts | 309° |
| 2026-04-28 00:48 | 29.66130 | -95.42684 | 4765 ft | 237 kts | 307° |
| 2026-04-28 00:48 | 29.67185 | -95.44138 | 4618 ft | 238 kts | 302° |
| 2026-04-28 00:48 | 29.68206 | -95.45646 | 4450 ft | 240 kts | 302° |
| 2026-04-28 00:49 | 29.69220 | -95.47163 | 4296 ft | 238 kts | 302° |
| 2026-04-28 00:49 | 29.70230 | -95.48670 | 4154 ft | 238 kts | 302° |
| 2026-04-28 00:49 | 29.71242 | -95.50172 | 4025 ft | 237 kts | 302° |
| 2026-04-28 00:49 | 29.72243 | -95.51662 | 3923 ft | 235 kts | 302° |
| 2026-04-28 00:50 | 29.73245 | -95.53135 | 3834 ft | 232 kts | 303° |
| 2026-04-28 00:50 | 29.74247 | -95.54584 | 3762 ft | 230 kts | 303° |
| 2026-04-28 00:50 | 29.75246 | -95.56017 | 3710 ft | 231 kts | 304° |
| 2026-04-28 00:50 | 29.76376 | -95.57356 | 3658 ft | 239 kts | 323° |
| 2026-04-28 00:51 | 29.77926 | -95.58145 | 3325 ft | 251 kts | 347° |
| 2026-04-28 00:51 | 29.79666 | -95.58080 | 2950 ft | 254 kts | 18° |
| 2026-04-28 00:51 | 29.81181 | -95.57122 | 2667 ft | 247 kts | 49° |
| 2026-04-28 00:51 | 29.81963 | -95.55442 | 2435 ft | 235 kts | 82° |
| 2026-04-28 00:52 | 29.82023 | -95.53608 | 2203 ft | 227 kts | 102° |
| 2026-04-28 00:52 | 29.81695 | -95.51864 | 2052 ft | 219 kts | 109° |
| 2026-04-28 00:52 | 29.81311 | -95.50156 | 2003 ft | 220 kts | 109° |
| 2026-04-28 00:52 | 29.80935 | -95.48467 | 2006 ft | 217 kts | 109° |
| 2026-04-28 00:53 | 29.80429 | -95.46837 | 1983 ft | 215 kts | 128° |
| 2026-04-28 00:53 | 29.79433 | -95.45591 | 2010 ft | 212 kts | 138° |
| 2026-04-28 00:53 | 29.78407 | -95.44380 | 1997 ft | 210 kts | 137° |
| 2026-04-28 00:53 | 29.77392 | -95.43178 | 2004 ft | 209 kts | 138° |
| 2026-04-28 00:54 | 29.76404 | -95.42003 | 1993 ft | 198 kts | 137° |
| 2026-04-28 00:54 | 29.75478 | -95.40900 | 1983 ft | 186 kts | 136° |
| 2026-04-28 00:54 | 29.74611 | -95.39868 | 1997 ft | 175 kts | 136° |
| 2026-04-28 00:54 | 29.73783 | -95.38884 | 1991 ft | 171 kts | 136° |
| 2026-04-28 00:55 | 29.72967 | -95.37914 | 1987 ft | 167 kts | 137° |
| 2026-04-28 00:55 | 29.72155 | -95.36949 | 2004 ft | 167 kts | 139° |
| 2026-04-28 00:55 | 29.71360 | -95.36001 | 1990 ft | 161 kts | 139° |
| 2026-04-28 00:55 | 29.70591 | -95.35086 | 1835 ft | 159 kts | 139° |
| 2026-04-28 00:56 | 29.69825 | -95.34174 | 1527 ft | 155 kts | 139° |
| 2026-04-28 00:56 | 29.69091 | -95.33299 | 1288 ft | 147 kts | 139° |
| 2026-04-28 00:56 | 29.68433 | -95.32513 | 1104 ft | 130 kts | 139° |
| 2026-04-28 00:56 | 29.67788 | -95.31748 | 909 ft | 136 kts | 139° |
| 2026-04-28 00:57 | 29.67160 | -95.30998 | 718 ft | 130 kts | 137° |
| 2026-04-28 00:57 | 29.66486 | -95.30224 | 551 ft | 143 kts | 135° |
| 2026-04-28 00:57 | 29.65840 | -95.29457 | 334 ft | 123 kts | 133° |
| 2026-04-28 00:57 | 29.65295 | -95.28768 | 155 ft | 116 kts | 138° |
| 2026-04-28 00:58 | 29.64718 | -95.28096 | 52 ft | 113 kts | 137° |
| 2026-04-28 00:58 | 29.64299 | -95.27603 | 51 ft | 55 kts | 135° |
| 2026-04-28 00:58 | 29.64111 | -95.27384 | 48 ft | 39 kts | 134° |
| 2026-04-28 00:58 | 29.63953 | -95.27178 | 49 ft | 28 kts | 118° |
| 2026-04-28 00:59 | 29.63922 | -95.26988 | 51 ft | 18 kts | 90° |
| 2026-04-28 00:59 | 29.63924 | -95.26915 | 51 ft | 8 kts | 77° |
| 2026-04-28 00:59 | 29.63952 | -95.26869 | 49 ft | 6 kts | 33° |
| 2026-04-28 00:59 | 29.63992 | -95.26863 | 51 ft | 6 kts | 347° |
| 2026-04-28 01:00 | 29.64045 | -95.26862 | 49 ft | 10 kts | 2° |
| 2026-04-28 01:00 | 29.64133 | -95.26866 | 51 ft | 18 kts | 342° |
| 2026-04-28 01:00 | 29.64224 | -95.26971 | 48 ft | 19 kts | 310° |
| 2026-04-28 01:00 | 29.64306 | -95.27081 | 47 ft | 17 kts | 310° |
| 2026-04-28 01:01 | 29.64377 | -95.27188 | 48 ft | 16 kts | 297° |
| 2026-04-28 01:01 | 29.64434 | -95.27291 | 51 ft | 15 kts | 313° |
| 2026-04-28 01:01 | 29.64504 | -95.27376 | 51 ft | 14 kts | 314° |
| 2026-04-28 01:01 | 29.64571 | -95.27455 | 51 ft | 14 kts | 315° |
| 2026-04-28 01:02 | 29.64649 | -95.27509 | 50 ft | 13 kts | 348° |
| 2026-04-28 01:02 | 29.64748 | -95.27515 | 51 ft | 16 kts | 0° |
| 2026-04-28 01:02 | 29.64868 | -95.27518 | 48 ft | 19 kts | 358° |
| 2026-04-28 01:02 | 29.65013 | -95.27522 | 51 ft | 21 kts | 358° |
| 2026-04-28 01:03 | 29.65137 | -95.27538 | 48 ft | 12 kts | 325° |
| 2026-04-28 01:03 | 29.65146 | -95.27599 | 51 ft | 7 kts | 266° |
| 2026-04-28 01:03 | 29.65143 | -95.27664 | 51 ft | 10 kts | 269° |
| 2026-04-28 01:03 | 29.65150 | -95.27750 | 51 ft | 10 kts | 303° |
| 2026-04-28 01:04 | 29.65199 | -95.27775 | 51 ft | 6 kts | 339° |
| 2026-04-28 01:04 | 29.65218 | -95.27783 | 51 ft | 1 kts | 339° |